sensor_id;sensor_type;location;lat;lon;timestamp;P1;durP1;ratioP1;P2;durP2;ratioP2
44832;SDS011;30569;51.252;9.830;2023-06-14T00:00:17;5.43;;;2.70;;
44832;SDS011;30569;51.252;9.830;2023-06-14T00:02:43;5.63;;;3.00;;
44832;SDS011;30569;51.252;9.830;2023-06-14T00:05:09;9.35;;;2.83;;
44832;SDS011;30569;51.252;9.830;2023-06-14T00:07:41;6.00;;;2.72;;
44832;SDS011;30569;51.252;9.830;2023-06-14T00:10:13;6.13;;;2.53;;
44832;SDS011;30569;51.252;9.830;2023-06-14T00:12:39;5.35;;;2.88;;
44832;SDS011;30569;51.252;9.830;2023-06-14T00:15:07;5.07;;;2.72;;
44832;SDS011;30569;51.252;9.830;2023-06-14T00:17:34;6.53;;;3.00;;
44832;SDS011;30569;51.252;9.830;2023-06-14T00:20:02;6.00;;;2.42;;
44832;SDS011;30569;51.252;9.830;2023-06-14T00:22:31;6.45;;;2.45;;
44832;SDS011;30569;51.252;9.830;2023-06-14T00:24:57;6.47;;;2.50;;
44832;SDS011;30569;51.252;9.830;2023-06-14T00:27:23;9.45;;;3.13;;
44832;SDS011;30569;51.252;9.830;2023-06-14T00:29:49;5.68;;;2.65;;
44832;SDS011;30569;51.252;9.830;2023-06-14T00:32:15;6.32;;;2.70;;
44832;SDS011;30569;51.252;9.830;2023-06-14T00:34:40;5.18;;;2.55;;
44832;SDS011;30569;51.252;9.830;2023-06-14T00:37:06;5.88;;;2.63;;
44832;SDS011;30569;51.252;9.830;2023-06-14T00:39:32;10.00;;;2.70;;
44832;SDS011;30569;51.252;9.830;2023-06-14T00:41:57;5.47;;;2.78;;
44832;SDS011;30569;51.252;9.830;2023-06-14T00:44:24;5.22;;;2.67;;
44832;SDS011;30569;51.252;9.830;2023-06-14T00:46:50;5.65;;;2.60;;
44832;SDS011;30569;51.252;9.830;2023-06-14T00:49:16;5.65;;;2.75;;
44832;SDS011;30569;51.252;9.830;2023-06-14T00:51:44;4.72;;;2.67;;
44832;SDS011;30569;51.252;9.830;2023-06-14T00:54:10;5.47;;;2.55;;
44832;SDS011;30569;51.252;9.830;2023-06-14T00:56:36;6.00;;;2.80;;
44832;SDS011;30569;51.252;9.830;2023-06-14T00:59:02;6.15;;;2.60;;
44832;SDS011;30569;51.252;9.830;2023-06-14T01:01:28;7.25;;;2.63;;
44832;SDS011;30569;51.252;9.830;2023-06-14T01:03:57;6.88;;;2.58;;
44832;SDS011;30569;51.252;9.830;2023-06-14T01:06:30;5.93;;;2.95;;
44832;SDS011;30569;51.252;9.830;2023-06-14T01:12:09;5.82;;;2.53;;
44832;SDS011;30569;51.252;9.830;2023-06-14T01:14:41;6.72;;;2.53;;
44832;SDS011;30569;51.252;9.830;2023-06-14T01:17:07;6.30;;;3.05;;
44832;SDS011;30569;51.252;9.830;2023-06-14T01:19:41;5.35;;;3.10;;
44832;SDS011;30569;51.252;9.830;2023-06-14T01:22:08;6.10;;;2.75;;
44832;SDS011;30569;51.252;9.830;2023-06-14T01:24:34;4.85;;;2.67;;
44832;SDS011;30569;51.252;9.830;2023-06-14T01:26:59;6.22;;;3.03;;
44832;SDS011;30569;51.252;9.830;2023-06-14T01:29:27;6.53;;;2.83;;
44832;SDS011;30569;51.252;9.830;2023-06-14T01:31:57;5.60;;;3.00;;
44832;SDS011;30569;51.252;9.830;2023-06-14T01:34:24;9.23;;;2.78;;
44832;SDS011;30569;51.252;9.830;2023-06-14T01:36:50;7.90;;;3.03;;
44832;SDS011;30569;51.252;9.830;2023-06-14T01:39:20;8.70;;;2.75;;
44832;SDS011;30569;51.252;9.830;2023-06-14T01:41:46;5.15;;;2.72;;
44832;SDS011;30569;51.252;9.830;2023-06-14T01:44:12;5.60;;;2.55;;
44832;SDS011;30569;51.252;9.830;2023-06-14T01:46:40;6.90;;;2.33;;
44832;SDS011;30569;51.252;9.830;2023-06-14T01:49:07;5.80;;;2.60;;
44832;SDS011;30569;51.252;9.830;2023-06-14T01:51:33;5.65;;;2.70;;
44832;SDS011;30569;51.252;9.830;2023-06-14T01:53:58;6.60;;;2.70;;
44832;SDS011;30569;51.252;9.830;2023-06-14T01:56:25;8.50;;;2.85;;
44832;SDS011;30569;51.252;9.830;2023-06-14T01:58:51;6.75;;;2.78;;
44832;SDS011;30569;51.252;9.830;2023-06-14T02:01:17;5.75;;;2.88;;
44832;SDS011;30569;51.252;9.830;2023-06-14T02:03:44;4.47;;;2.50;;
44832;SDS011;30569;51.252;9.830;2023-06-14T02:06:10;6.78;;;2.83;;
44832;SDS011;30569;51.252;9.830;2023-06-14T02:08:35;8.77;;;2.88;;
44832;SDS011;30569;51.252;9.830;2023-06-14T02:11:01;5.80;;;2.60;;
44832;SDS011;30569;51.252;9.830;2023-06-14T02:13:26;7.40;;;3.38;;
44832;SDS011;30569;51.252;9.830;2023-06-14T02:15:52;8.20;;;2.80;;
44832;SDS011;30569;51.252;9.830;2023-06-14T02:18:19;5.72;;;2.65;;
44832;SDS011;30569;51.252;9.830;2023-06-14T02:20:46;8.02;;;2.67;;
44832;SDS011;30569;51.252;9.830;2023-06-14T02:23:12;4.88;;;2.63;;
44832;SDS011;30569;51.252;9.830;2023-06-14T02:25:38;6.63;;;2.53;;
44832;SDS011;30569;51.252;9.830;2023-06-14T02:28:05;6.07;;;2.63;;
44832;SDS011;30569;51.252;9.830;2023-06-14T02:30:30;6.68;;;2.65;;
44832;SDS011;30569;51.252;9.830;2023-06-14T02:32:56;5.00;;;2.80;;
44832;SDS011;30569;51.252;9.830;2023-06-14T02:35:22;7.70;;;2.47;;
44832;SDS011;30569;51.252;9.830;2023-06-14T02:37:51;5.65;;;3.13;;
44832;SDS011;30569;51.252;9.830;2023-06-14T02:40:17;5.85;;;2.88;;
44832;SDS011;30569;51.252;9.830;2023-06-14T02:42:43;5.32;;;3.10;;
44832;SDS011;30569;51.252;9.830;2023-06-14T02:45:09;5.60;;;2.70;;
44832;SDS011;30569;51.252;9.830;2023-06-14T02:47:35;4.15;;;2.20;;
44832;SDS011;30569;51.252;9.830;2023-06-14T02:50:00;4.55;;;2.58;;
44832;SDS011;30569;51.252;9.830;2023-06-14T02:52:27;5.57;;;2.58;;
44832;SDS011;30569;51.252;9.830;2023-06-14T02:54:53;6.90;;;2.70;;
44832;SDS011;30569;51.252;9.830;2023-06-14T02:57:19;5.38;;;2.67;;
44832;SDS011;30569;51.252;9.830;2023-06-14T02:59:45;6.03;;;2.80;;
44832;SDS011;30569;51.252;9.830;2023-06-14T03:02:10;5.20;;;2.92;;
44832;SDS011;30569;51.252;9.830;2023-06-14T03:04:36;8.27;;;3.00;;
44832;SDS011;30569;51.252;9.830;2023-06-14T03:07:05;6.15;;;3.03;;
44832;SDS011;30569;51.252;9.830;2023-06-14T03:09:34;5.40;;;2.57;;
44832;SDS011;30569;51.252;9.830;2023-06-14T03:12:02;6.22;;;2.65;;
44832;SDS011;30569;51.252;9.830;2023-06-14T03:14:28;6.38;;;2.72;;
44832;SDS011;30569;51.252;9.830;2023-06-14T03:16:55;6.03;;;2.80;;
44832;SDS011;30569;51.252;9.830;2023-06-14T03:19:21;4.87;;;2.60;;
44832;SDS011;30569;51.252;9.830;2023-06-14T03:21:47;5.87;;;2.83;;
44832;SDS011;30569;51.252;9.830;2023-06-14T03:24:14;5.30;;;2.60;;
44832;SDS011;30569;51.252;9.830;2023-06-14T03:26:41;6.03;;;2.77;;
44832;SDS011;30569;51.252;9.830;2023-06-14T03:29:07;4.88;;;2.70;;
44832;SDS011;30569;51.252;9.830;2023-06-14T03:31:33;9.43;;;3.13;;
44832;SDS011;30569;51.252;9.830;2023-06-14T03:33:59;6.18;;;2.38;;
44832;SDS011;30569;51.252;9.830;2023-06-14T03:36:25;5.03;;;2.60;;
44832;SDS011;30569;51.252;9.830;2023-06-14T03:38:52;5.57;;;2.70;;
44832;SDS011;30569;51.252;9.830;2023-06-14T03:41:19;15.13;;;3.10;;
44832;SDS011;30569;51.252;9.830;2023-06-14T03:43:44;4.80;;;2.20;;
44832;SDS011;30569;51.252;9.830;2023-06-14T03:46:10;5.57;;;2.80;;
44832;SDS011;30569;51.252;9.830;2023-06-14T03:48:35;5.15;;;2.70;;
44832;SDS011;30569;51.252;9.830;2023-06-14T03:51:01;5.35;;;2.97;;
44832;SDS011;30569;51.252;9.830;2023-06-14T03:53:27;6.53;;;2.50;;
44832;SDS011;30569;51.252;9.830;2023-06-14T03:55:54;5.00;;;2.40;;
44832;SDS011;30569;51.252;9.830;2023-06-14T03:58:19;6.67;;;3.00;;
44832;SDS011;30569;51.252;9.830;2023-06-14T04:00:45;10.93;;;3.28;;
44832;SDS011;30569;51.252;9.830;2023-06-14T04:03:10;8.20;;;2.67;;
44832;SDS011;30569;51.252;9.830;2023-06-14T04:05:38;6.00;;;2.55;;
44832;SDS011;30569;51.252;9.830;2023-06-14T04:08:07;5.30;;;2.80;;
44832;SDS011;30569;51.252;9.830;2023-06-14T04:10:33;8.48;;;2.70;;
44832;SDS011;30569;51.252;9.830;2023-06-14T04:12:59;17.03;;;3.13;;
44832;SDS011;30569;51.252;9.830;2023-06-14T04:15:25;8.63;;;4.03;;
44832;SDS011;30569;51.252;9.830;2023-06-14T04:17:53;17.73;;;3.15;;
44832;SDS011;30569;51.252;9.830;2023-06-14T04:20:22;8.37;;;3.43;;
44832;SDS011;30569;51.252;9.830;2023-06-14T04:22:49;7.63;;;3.20;;
44832;SDS011;30569;51.252;9.830;2023-06-14T04:25:15;4.90;;;2.80;;
44832;SDS011;30569;51.252;9.830;2023-06-14T04:27:41;7.20;;;2.60;;
44832;SDS011;30569;51.252;9.830;2023-06-14T04:30:08;4.90;;;2.72;;
44832;SDS011;30569;51.252;9.830;2023-06-14T04:32:34;6.32;;;2.60;;
44832;SDS011;30569;51.252;9.830;2023-06-14T04:35:05;5.63;;;3.10;;
44832;SDS011;30569;51.252;9.830;2023-06-14T04:37:32;6.35;;;2.90;;
44832;SDS011;30569;51.252;9.830;2023-06-14T04:39:58;6.20;;;2.72;;
44832;SDS011;30569;51.252;9.830;2023-06-14T04:42:24;5.22;;;2.47;;
44832;SDS011;30569;51.252;9.830;2023-06-14T04:44:50;4.95;;;2.60;;
44832;SDS011;30569;51.252;9.830;2023-06-14T04:47:19;5.22;;;2.60;;
44832;SDS011;30569;51.252;9.830;2023-06-14T04:49:46;5.47;;;3.05;;
44832;SDS011;30569;51.252;9.830;2023-06-14T04:52:11;5.95;;;2.90;;
44832;SDS011;30569;51.252;9.830;2023-06-14T04:54:38;6.55;;;2.90;;
44832;SDS011;30569;51.252;9.830;2023-06-14T04:57:07;9.73;;;3.10;;
44832;SDS011;30569;51.252;9.830;2023-06-14T04:59:33;5.68;;;3.20;;
44832;SDS011;30569;51.252;9.830;2023-06-14T05:02:00;8.25;;;3.28;;
44832;SDS011;30569;51.252;9.830;2023-06-14T05:04:26;6.03;;;2.75;;
44832;SDS011;30569;51.252;9.830;2023-06-14T05:06:53;5.00;;;2.92;;
44832;SDS011;30569;51.252;9.830;2023-06-14T05:09:19;6.25;;;2.67;;
44832;SDS011;30569;51.252;9.830;2023-06-14T05:11:45;4.45;;;2.53;;
44832;SDS011;30569;51.252;9.830;2023-06-14T05:14:12;5.05;;;2.50;;
44832;SDS011;30569;51.252;9.830;2023-06-14T05:16:39;9.75;;;2.80;;
44832;SDS011;30569;51.252;9.830;2023-06-14T05:19:05;8.05;;;3.05;;
44832;SDS011;30569;51.252;9.830;2023-06-14T05:21:31;4.85;;;2.60;;
44832;SDS011;30569;51.252;9.830;2023-06-14T05:24:00;5.18;;;2.42;;
44832;SDS011;30569;51.252;9.830;2023-06-14T05:26:25;5.63;;;2.22;;
44832;SDS011;30569;51.252;9.830;2023-06-14T05:28:55;6.22;;;2.30;;
44832;SDS011;30569;51.252;9.830;2023-06-14T05:31:22;6.43;;;2.30;;
44832;SDS011;30569;51.252;9.830;2023-06-14T05:33:48;5.05;;;2.92;;
44832;SDS011;30569;51.252;9.830;2023-06-14T05:36:14;6.32;;;2.47;;
44832;SDS011;30569;51.252;9.830;2023-06-14T05:38:40;6.72;;;2.78;;
44832;SDS011;30569;51.252;9.830;2023-06-14T05:41:05;7.15;;;2.53;;
44832;SDS011;30569;51.252;9.830;2023-06-14T05:43:31;6.22;;;2.70;;
44832;SDS011;30569;51.252;9.830;2023-06-14T05:45:56;6.57;;;2.63;;
44832;SDS011;30569;51.252;9.830;2023-06-14T05:48:22;7.80;;;3.17;;
44832;SDS011;30569;51.252;9.830;2023-06-14T05:50:47;4.63;;;2.35;;
44832;SDS011;30569;51.252;9.830;2023-06-14T05:53:13;4.85;;;2.40;;
44832;SDS011;30569;51.252;9.830;2023-06-14T05:55:39;5.22;;;2.70;;
44832;SDS011;30569;51.252;9.830;2023-06-14T05:58:04;7.18;;;2.85;;
44832;SDS011;30569;51.252;9.830;2023-06-14T06:00:30;3.85;;;2.20;;
44832;SDS011;30569;51.252;9.830;2023-06-14T06:02:55;4.20;;;2.30;;
44832;SDS011;30569;51.252;9.830;2023-06-14T06:05:22;6.32;;;2.78;;
44832;SDS011;30569;51.252;9.830;2023-06-14T06:07:48;4.82;;;2.42;;
44832;SDS011;30569;51.252;9.830;2023-06-14T06:10:14;5.53;;;2.63;;
44832;SDS011;30569;51.252;9.830;2023-06-14T06:12:41;4.43;;;2.40;;
44832;SDS011;30569;51.252;9.830;2023-06-14T06:15:07;6.50;;;2.47;;
44832;SDS011;30569;51.252;9.830;2023-06-14T06:17:36;6.47;;;2.58;;
44832;SDS011;30569;51.252;9.830;2023-06-14T06:20:02;5.68;;;2.67;;
44832;SDS011;30569;51.252;9.830;2023-06-14T06:22:30;6.70;;;3.00;;
44832;SDS011;30569;51.252;9.830;2023-06-14T06:24:56;4.88;;;2.38;;
44832;SDS011;30569;51.252;9.830;2023-06-14T06:27:21;6.20;;;2.42;;
44832;SDS011;30569;51.252;9.830;2023-06-14T06:29:47;5.20;;;2.60;;
44832;SDS011;30569;51.252;9.830;2023-06-14T06:32:13;5.72;;;2.60;;
44832;SDS011;30569;51.252;9.830;2023-06-14T06:34:39;5.35;;;2.47;;
44832;SDS011;30569;51.252;9.830;2023-06-14T06:37:05;5.35;;;2.63;;
44832;SDS011;30569;51.252;9.830;2023-06-14T06:39:31;4.97;;;2.35;;
44832;SDS011;30569;51.252;9.830;2023-06-14T06:41:56;5.55;;;2.30;;
44832;SDS011;30569;51.252;9.830;2023-06-14T06:44:22;5.03;;;2.60;;
44832;SDS011;30569;51.252;9.830;2023-06-14T06:46:47;4.47;;;2.45;;
44832;SDS011;30569;51.252;9.830;2023-06-14T06:49:13;6.35;;;2.50;;
44832;SDS011;30569;51.252;9.830;2023-06-14T06:51:40;5.35;;;2.50;;
44832;SDS011;30569;51.252;9.830;2023-06-14T06:54:08;6.20;;;2.60;;
44832;SDS011;30569;51.252;9.830;2023-06-14T06:56:34;6.38;;;2.90;;
44832;SDS011;30569;51.252;9.830;2023-06-14T06:59:00;4.28;;;2.40;;
44832;SDS011;30569;51.252;9.830;2023-06-14T07:01:25;7.10;;;2.75;;
44832;SDS011;30569;51.252;9.830;2023-06-14T07:03:53;5.35;;;2.58;;
44832;SDS011;30569;51.252;9.830;2023-06-14T07:06:22;5.55;;;2.83;;
44832;SDS011;30569;51.252;9.830;2023-06-14T07:08:52;7.00;;;2.88;;
44832;SDS011;30569;51.252;9.830;2023-06-14T07:11:17;7.03;;;3.08;;
44832;SDS011;30569;51.252;9.830;2023-06-14T07:13:43;7.35;;;3.33;;
44832;SDS011;30569;51.252;9.830;2023-06-14T07:16:08;5.15;;;2.72;;
44832;SDS011;30569;51.252;9.830;2023-06-14T07:18:34;10.18;;;2.80;;
44832;SDS011;30569;51.252;9.830;2023-06-14T07:21:00;8.23;;;3.20;;
44832;SDS011;30569;51.252;9.830;2023-06-14T07:23:26;13.90;;;3.22;;
44832;SDS011;30569;51.252;9.830;2023-06-14T07:25:51;5.55;;;3.13;;
44832;SDS011;30569;51.252;9.830;2023-06-14T07:28:17;9.15;;;3.20;;
44832;SDS011;30569;51.252;9.830;2023-06-14T07:30:43;5.85;;;2.95;;
44832;SDS011;30569;51.252;9.830;2023-06-14T07:33:09;6.93;;;2.83;;
44832;SDS011;30569;51.252;9.830;2023-06-14T07:35:36;8.43;;;2.88;;
44832;SDS011;30569;51.252;9.830;2023-06-14T07:38:01;5.53;;;2.80;;
44832;SDS011;30569;51.252;9.830;2023-06-14T07:40:27;5.15;;;2.60;;
44832;SDS011;30569;51.252;9.830;2023-06-14T07:42:52;7.90;;;3.03;;
44832;SDS011;30569;51.252;9.830;2023-06-14T07:45:19;5.75;;;2.50;;
44832;SDS011;30569;51.252;9.830;2023-06-14T07:47:45;5.07;;;2.35;;
44832;SDS011;30569;51.252;9.830;2023-06-14T07:50:11;4.45;;;2.58;;
44832;SDS011;30569;51.252;9.830;2023-06-14T07:52:37;4.85;;;2.30;;
44832;SDS011;30569;51.252;9.830;2023-06-14T07:55:03;6.07;;;1.98;;
44832;SDS011;30569;51.252;9.830;2023-06-14T07:57:29;5.88;;;2.38;;
44832;SDS011;30569;51.252;9.830;2023-06-14T07:59:54;4.25;;;2.30;;
44832;SDS011;30569;51.252;9.830;2023-06-14T08:02:20;9.88;;;2.38;;
44832;SDS011;30569;51.252;9.830;2023-06-14T08:04:46;6.05;;;2.38;;
44832;SDS011;30569;51.252;9.830;2023-06-14T08:07:13;5.03;;;2.17;;
44832;SDS011;30569;51.252;9.830;2023-06-14T08:09:39;4.75;;;2.75;;
44832;SDS011;30569;51.252;9.830;2023-06-14T08:12:05;5.15;;;2.30;;
44832;SDS011;30569;51.252;9.830;2023-06-14T08:14:37;4.80;;;2.20;;
44832;SDS011;30569;51.252;9.830;2023-06-14T08:17:04;4.28;;;2.25;;
44832;SDS011;30569;51.252;9.830;2023-06-14T08:19:29;6.78;;;2.70;;
44832;SDS011;30569;51.252;9.830;2023-06-14T08:21:56;6.35;;;2.38;;
44832;SDS011;30569;51.252;9.830;2023-06-14T08:24:22;5.68;;;2.72;;
44832;SDS011;30569;51.252;9.830;2023-06-14T08:26:52;4.10;;;2.38;;
44832;SDS011;30569;51.252;9.830;2023-06-14T08:29:18;7.80;;;2.50;;
44832;SDS011;30569;51.252;9.830;2023-06-14T08:31:43;5.85;;;2.88;;
44832;SDS011;30569;51.252;9.830;2023-06-14T08:34:09;5.85;;;2.75;;
44832;SDS011;30569;51.252;9.830;2023-06-14T08:36:35;4.60;;;2.33;;
44832;SDS011;30569;51.252;9.830;2023-06-14T08:39:01;6.05;;;2.40;;
44832;SDS011;30569;51.252;9.830;2023-06-14T08:41:27;5.63;;;2.50;;
44832;SDS011;30569;51.252;9.830;2023-06-14T08:43:54;4.75;;;2.47;;
44832;SDS011;30569;51.252;9.830;2023-06-14T08:46:20;5.90;;;2.60;;
44832;SDS011;30569;51.252;9.830;2023-06-14T08:48:50;5.63;;;2.55;;
44832;SDS011;30569;51.252;9.830;2023-06-14T08:51:18;6.32;;;2.42;;
44832;SDS011;30569;51.252;9.830;2023-06-14T08:53:46;5.50;;;2.60;;
44832;SDS011;30569;51.252;9.830;2023-06-14T08:56:17;4.15;;;2.05;;
44832;SDS011;30569;51.252;9.830;2023-06-14T08:58:45;4.75;;;2.40;;
44832;SDS011;30569;51.252;9.830;2023-06-14T09:01:13;5.68;;;2.75;;
44832;SDS011;30569;51.252;9.830;2023-06-14T09:03:40;6.18;;;2.50;;
44832;SDS011;30569;51.252;9.830;2023-06-14T09:06:06;5.53;;;2.53;;
44832;SDS011;30569;51.252;9.830;2023-06-14T09:08:34;4.55;;;2.80;;
44832;SDS011;30569;51.252;9.830;2023-06-14T09:11:00;4.35;;;2.38;;
44832;SDS011;30569;51.252;9.830;2023-06-14T09:13:27;5.00;;;2.70;;
44832;SDS011;30569;51.252;9.830;2023-06-14T09:15:52;4.75;;;2.78;;
44832;SDS011;30569;51.252;9.830;2023-06-14T09:18:18;5.72;;;2.50;;
44832;SDS011;30569;51.252;9.830;2023-06-14T09:20:47;8.05;;;2.42;;
44832;SDS011;30569;51.252;9.830;2023-06-14T09:23:13;6.05;;;2.20;;
44832;SDS011;30569;51.252;9.830;2023-06-14T09:25:45;5.28;;;2.88;;
44832;SDS011;30569;51.252;9.830;2023-06-14T09:28:11;5.28;;;2.53;;
44832;SDS011;30569;51.252;9.830;2023-06-14T09:30:37;7.15;;;2.65;;
44832;SDS011;30569;51.252;9.830;2023-06-14T09:33:03;6.43;;;2.45;;
44832;SDS011;30569;51.252;9.830;2023-06-14T09:35:30;3.88;;;2.20;;
44832;SDS011;30569;51.252;9.830;2023-06-14T09:37:56;6.10;;;2.60;;
44832;SDS011;30569;51.252;9.830;2023-06-14T09:40:22;6.78;;;2.40;;
44832;SDS011;30569;51.252;9.830;2023-06-14T09:42:48;5.40;;;2.50;;
44832;SDS011;30569;51.252;9.830;2023-06-14T09:45:15;5.93;;;2.50;;
44832;SDS011;30569;51.252;9.830;2023-06-14T09:47:46;5.95;;;2.40;;
44832;SDS011;30569;51.252;9.830;2023-06-14T09:50:14;5.57;;;2.55;;
44832;SDS011;30569;51.252;9.830;2023-06-14T09:52:39;5.93;;;2.50;;
44832;SDS011;30569;51.252;9.830;2023-06-14T09:55:11;6.43;;;2.25;;
44832;SDS011;30569;51.252;9.830;2023-06-14T09:57:39;5.68;;;2.20;;
44832;SDS011;30569;51.252;9.830;2023-06-14T10:00:07;6.32;;;3.10;;
44832;SDS011;30569;51.252;9.830;2023-06-14T10:02:37;6.75;;;2.58;;
44832;SDS011;30569;51.252;9.830;2023-06-14T10:07:40;4.45;;;2.33;;
44832;SDS011;30569;51.252;9.830;2023-06-14T10:10:09;4.57;;;2.30;;
44832;SDS011;30569;51.252;9.830;2023-06-14T10:12:35;5.22;;;2.58;;
44832;SDS011;30569;51.252;9.830;2023-06-14T10:15:01;5.20;;;2.75;;
44832;SDS011;30569;51.252;9.830;2023-06-14T10:20:35;6.75;;;2.60;;
44832;SDS011;30569;51.252;9.830;2023-06-14T10:23:25;4.50;;;2.45;;
44832;SDS011;30569;51.252;9.830;2023-06-14T10:25:54;5.60;;;2.20;;
44832;SDS011;30569;51.252;9.830;2023-06-14T10:28:22;4.25;;;2.10;;
44832;SDS011;30569;51.252;9.830;2023-06-14T10:31:02;6.28;;;2.85;;
44832;SDS011;30569;51.252;9.830;2023-06-14T10:33:29;4.97;;;2.50;;
44832;SDS011;30569;51.252;9.830;2023-06-14T10:38:57;6.85;;;2.60;;
44832;SDS011;30569;51.252;9.830;2023-06-14T10:41:24;5.13;;;2.60;;
44832;SDS011;30569;51.252;9.830;2023-06-14T10:46:59;6.35;;;2.60;;
44832;SDS011;30569;51.252;9.830;2023-06-14T10:49:37;4.35;;;2.22;;
44832;SDS011;30569;51.252;9.830;2023-06-14T10:52:13;7.95;;;3.08;;
44832;SDS011;30569;51.252;9.830;2023-06-14T10:57:31;8.45;;;3.33;;
44832;SDS011;30569;51.252;9.830;2023-06-14T10:59:58;6.95;;;2.45;;
44832;SDS011;30569;51.252;9.830;2023-06-14T11:11:06;5.13;;;2.72;;
44832;SDS011;30569;51.252;9.830;2023-06-14T11:13:32;7.00;;;2.90;;
44832;SDS011;30569;51.252;9.830;2023-06-14T11:15:59;6.00;;;2.63;;
44832;SDS011;30569;51.252;9.830;2023-06-14T11:18:25;4.82;;;2.30;;
44832;SDS011;30569;51.252;9.830;2023-06-14T11:20:52;7.07;;;2.10;;
44832;SDS011;30569;51.252;9.830;2023-06-14T11:23:18;6.28;;;2.40;;
44832;SDS011;30569;51.252;9.830;2023-06-14T11:25:43;4.85;;;2.63;;
44832;SDS011;30569;51.252;9.830;2023-06-14T11:28:14;4.68;;;2.58;;
44832;SDS011;30569;51.252;9.830;2023-06-14T11:30:39;4.70;;;2.55;;
44832;SDS011;30569;51.252;9.830;2023-06-14T11:33:09;5.22;;;2.40;;
44832;SDS011;30569;51.252;9.830;2023-06-14T11:35:34;6.50;;;2.58;;
44832;SDS011;30569;51.252;9.830;2023-06-14T11:38:01;6.35;;;2.60;;
44832;SDS011;30569;51.252;9.830;2023-06-14T11:40:27;5.78;;;2.50;;
44832;SDS011;30569;51.252;9.830;2023-06-14T11:42:58;5.32;;;2.40;;
44832;SDS011;30569;51.252;9.830;2023-06-14T11:45:25;5.20;;;2.50;;
44832;SDS011;30569;51.252;9.830;2023-06-14T11:47:53;5.75;;;2.30;;
44832;SDS011;30569;51.252;9.830;2023-06-14T11:50:21;4.22;;;2.33;;
44832;SDS011;30569;51.252;9.830;2023-06-14T11:52:52;4.85;;;2.47;;
44832;SDS011;30569;51.252;9.830;2023-06-14T11:55:21;4.47;;;2.33;;
44832;SDS011;30569;51.252;9.830;2023-06-14T11:57:47;7.70;;;2.70;;
44832;SDS011;30569;51.252;9.830;2023-06-14T12:00:13;4.53;;;2.22;;
44832;SDS011;30569;51.252;9.830;2023-06-14T12:02:40;4.50;;;2.35;;
44832;SDS011;30569;51.252;9.830;2023-06-14T12:05:06;6.28;;;2.47;;
44832;SDS011;30569;51.252;9.830;2023-06-14T12:07:35;5.20;;;1.95;;
44832;SDS011;30569;51.252;9.830;2023-06-14T12:12:28;5.78;;;1.90;;
44832;SDS011;30569;51.252;9.830;2023-06-14T12:14:56;4.40;;;2.40;;
44832;SDS011;30569;51.252;9.830;2023-06-14T12:17:22;5.75;;;2.58;;
44832;SDS011;30569;51.252;9.830;2023-06-14T12:19:48;6.35;;;2.15;;
44832;SDS011;30569;51.252;9.830;2023-06-14T12:22:15;3.67;;;2.05;;
44832;SDS011;30569;51.252;9.830;2023-06-14T12:24:45;4.15;;;2.20;;
44832;SDS011;30569;51.252;9.830;2023-06-14T12:27:11;5.05;;;2.15;;
44832;SDS011;30569;51.252;9.830;2023-06-14T12:29:40;5.53;;;1.92;;
44832;SDS011;30569;51.252;9.830;2023-06-14T12:32:09;5.95;;;2.22;;
44832;SDS011;30569;51.252;9.830;2023-06-14T12:34:34;5.63;;;2.58;;
44832;SDS011;30569;51.252;9.830;2023-06-14T12:37:00;6.78;;;2.20;;
44832;SDS011;30569;51.252;9.830;2023-06-14T12:39:26;4.00;;;2.00;;
44832;SDS011;30569;51.252;9.830;2023-06-14T12:41:52;3.90;;;2.10;;
44832;SDS011;30569;51.252;9.830;2023-06-14T12:44:19;6.50;;;2.45;;
44832;SDS011;30569;51.252;9.830;2023-06-14T12:46:45;6.10;;;2.50;;
44832;SDS011;30569;51.252;9.830;2023-06-14T12:49:11;5.97;;;2.30;;
44832;SDS011;30569;51.252;9.830;2023-06-14T12:51:37;5.13;;;2.20;;
44832;SDS011;30569;51.252;9.830;2023-06-14T12:54:03;5.70;;;2.35;;
44832;SDS011;30569;51.252;9.830;2023-06-14T12:56:29;4.00;;;2.10;;
44832;SDS011;30569;51.252;9.830;2023-06-14T12:58:55;7.00;;;2.38;;
44832;SDS011;30569;51.252;9.830;2023-06-14T13:01:20;7.97;;;2.28;;
44832;SDS011;30569;51.252;9.830;2023-06-14T13:03:46;3.80;;;1.90;;
44832;SDS011;30569;51.252;9.830;2023-06-14T13:06:12;8.35;;;2.22;;
44832;SDS011;30569;51.252;9.830;2023-06-14T13:08:38;6.05;;;2.10;;
44832;SDS011;30569;51.252;9.830;2023-06-14T13:11:04;6.10;;;2.40;;
44832;SDS011;30569;51.252;9.830;2023-06-14T13:13:30;4.95;;;2.28;;
44832;SDS011;30569;51.252;9.830;2023-06-14T13:15:55;4.88;;;2.42;;
44832;SDS011;30569;51.252;9.830;2023-06-14T13:18:21;5.95;;;2.20;;
44832;SDS011;30569;51.252;9.830;2023-06-14T13:20:46;7.70;;;2.17;;
44832;SDS011;30569;51.252;9.830;2023-06-14T13:23:12;6.35;;;2.15;;
44832;SDS011;30569;51.252;9.830;2023-06-14T13:25:38;4.28;;;2.10;;
44832;SDS011;30569;51.252;9.830;2023-06-14T13:28:04;4.85;;;2.10;;
44832;SDS011;30569;51.252;9.830;2023-06-14T13:30:31;3.60;;;1.80;;
44832;SDS011;30569;51.252;9.830;2023-06-14T13:32:57;5.13;;;1.95;;
44832;SDS011;30569;51.252;9.830;2023-06-14T13:35:23;5.53;;;2.13;;
44832;SDS011;30569;51.252;9.830;2023-06-14T13:37:49;3.83;;;2.00;;
44832;SDS011;30569;51.252;9.830;2023-06-14T13:40:15;3.70;;;1.85;;
44832;SDS011;30569;51.252;9.830;2023-06-14T13:42:41;3.83;;;1.60;;
44832;SDS011;30569;51.252;9.830;2023-06-14T13:45:06;5.03;;;2.00;;
44832;SDS011;30569;51.252;9.830;2023-06-14T13:47:33;5.00;;;2.05;;
44832;SDS011;30569;51.252;9.830;2023-06-14T13:49:59;4.22;;;1.90;;
44832;SDS011;30569;51.252;9.830;2023-06-14T13:52:24;4.90;;;1.95;;
44832;SDS011;30569;51.252;9.830;2023-06-14T13:54:51;4.72;;;2.00;;
44832;SDS011;30569;51.252;9.830;2023-06-14T13:57:16;4.55;;;2.08;;
44832;SDS011;30569;51.252;9.830;2023-06-14T13:59:42;4.00;;;2.00;;
44832;SDS011;30569;51.252;9.830;2023-06-14T14:02:11;6.15;;;2.10;;
44832;SDS011;30569;51.252;9.830;2023-06-14T14:04:37;5.85;;;2.08;;
44832;SDS011;30569;51.252;9.830;2023-06-14T14:07:04;3.97;;;2.05;;
44832;SDS011;30569;51.252;9.830;2023-06-14T14:09:31;5.75;;;1.80;;
44832;SDS011;30569;51.252;9.830;2023-06-14T14:11:57;5.22;;;2.03;;
44832;SDS011;30569;51.252;9.830;2023-06-14T14:14:23;4.15;;;1.80;;
44832;SDS011;30569;51.252;9.830;2023-06-14T14:16:50;3.55;;;1.80;;
44832;SDS011;30569;51.252;9.830;2023-06-14T14:19:19;4.00;;;2.03;;
44832;SDS011;30569;51.252;9.830;2023-06-14T14:21:48;4.25;;;2.00;;
44832;SDS011;30569;51.252;9.830;2023-06-14T14:24:14;5.05;;;2.03;;
44832;SDS011;30569;51.252;9.830;2023-06-14T14:26:40;4.15;;;2.00;;
44832;SDS011;30569;51.252;9.830;2023-06-14T14:29:06;5.95;;;2.05;;
44832;SDS011;30569;51.252;9.830;2023-06-14T14:31:32;3.85;;;1.85;;
44832;SDS011;30569;51.252;9.830;2023-06-14T14:33:57;3.95;;;1.90;;
44832;SDS011;30569;51.252;9.830;2023-06-14T14:36:23;4.00;;;1.90;;
44832;SDS011;30569;51.252;9.830;2023-06-14T14:38:48;4.35;;;1.92;;
44832;SDS011;30569;51.252;9.830;2023-06-14T14:41:16;4.18;;;1.88;;
44832;SDS011;30569;51.252;9.830;2023-06-14T14:43:42;4.32;;;1.90;;
44832;SDS011;30569;51.252;9.830;2023-06-14T14:46:07;3.53;;;1.75;;
44832;SDS011;30569;51.252;9.830;2023-06-14T14:48:33;4.72;;;1.95;;
44832;SDS011;30569;51.252;9.830;2023-06-14T14:50:58;4.35;;;1.75;;
44832;SDS011;30569;51.252;9.830;2023-06-14T14:53:24;4.53;;;1.92;;
44832;SDS011;30569;51.252;9.830;2023-06-14T14:55:50;8.80;;;2.00;;
44832;SDS011;30569;51.252;9.830;2023-06-14T14:58:15;5.22;;;1.80;;
44832;SDS011;30569;51.252;9.830;2023-06-14T15:00:43;4.55;;;1.83;;
44832;SDS011;30569;51.252;9.830;2023-06-14T15:03:09;7.22;;;1.65;;
44832;SDS011;30569;51.252;9.830;2023-06-14T15:05:35;4.25;;;1.60;;
44832;SDS011;30569;51.252;9.830;2023-06-14T15:08:02;5.50;;;1.60;;
44832;SDS011;30569;51.252;9.830;2023-06-14T15:10:28;6.35;;;1.80;;
44832;SDS011;30569;51.252;9.830;2023-06-14T15:12:53;6.90;;;1.80;;